Time;durP1;ratioP1;P1;durP2;ratioP2;P2;SDS_P1;SDS_P2;PMS_P1;PMS_P2;Temp;Humidity;BMP_temperature;BMP_pressure;BME280_temperature;BME280_humidity;BME280_pressure;Samples;Min_cycle;Max_cycle;Signal;HPM_P1;HPM_P2
2022/04/24 00:02:17;;;;;;;;;23.75;21.25;;;;;12.43;56.54;-18823.97;5010185;28;10424;-74
2022/04/24 00:04:45;;;;;;;;;22.50;20.00;;;;;12.37;56.85;-18822.00;5023549;28;10712;-74
2022/04/24 00:07:12;;;;;;;;;14.25;14.25;;;;;12.58;56.18;-18828.31;5030060;28;10640;-74
2022/04/24 00:09:38;;;;;;;;;23.75;21.00;;;;;12.46;56.75;-18824.72;5029510;28;10495;-74
2022/04/24 00:12:06;;;;;;;;;26.00;15.50;;;;;12.55;56.63;-18827.44;5028644;28;10743;-74
2022/04/24 00:14:33;;;;;;;;;20.25;18.75;;;;;12.34;57.31;-18821.25;5024096;28;10667;-74
2022/04/24 00:16:59;;;;;;;;;21.00;19.75;;;;;12.39;57.12;-18822.75;5029930;28;10572;-74
2022/04/24 00:19:26;;;;;;;;;20.75;19.50;;;;;12.41;57.51;-18823.22;5029524;28;10555;-74
2022/04/24 00:21:52;;;;;;;;;25.25;24.50;;;;;12.23;58.38;-18817.94;5012589;28;10430;-74
2022/04/24 00:24:19;;;;;;;;;19.25;17.50;;;;;12.42;57.79;-18823.66;5015876;28;11057;-75
2022/04/24 00:26:45;;;;;;;;;20.25;19.00;;;;;12.25;58.37;-18818.69;5028761;28;10601;-75
2022/04/24 00:29:12;;;;;;;;;23.25;20.50;;;;;12.28;58.56;-18819.44;5026597;28;10551;-74
2022/04/24 00:31:38;;;;;;;;;18.50;18.00;;;;;12.16;58.90;-18815.97;5015359;28;10515;-74
2022/04/24 00:34:05;;;;;;;;;20.25;19.25;;;;;12.26;59.10;-18818.84;5030821;28;10531;-75
2022/04/24 00:36:31;;;;;;;;;19.50;16.75;;;;;12.27;59.01;-18819.28;5032041;28;10558;-74
2022/04/24 00:38:57;;;;;;;;;20.50;17.50;;;;;12.22;59.29;-18817.63;5033885;28;10474;-74
2022/04/24 00:41:24;;;;;;;;;25.25;25.00;;;;;12.19;59.62;-18816.88;5018424;28;10635;-74
2022/04/24 00:43:52;;;;;;;;;20.50;20.50;;;;;12.26;59.52;-18818.84;5013985;28;10755;-74
2022/04/24 00:46:53;;;;;;;;;20.75;18.75;;;;;12.15;59.94;-18815.66;5027725;28;10806;-74
2022/04/24 00:49:20;;;;;;;;;21.25;19.75;;;;;12.22;59.96;-18817.78;5026652;28;10573;-73
2022/04/24 00:51:47;;;;;;;;;22.25;21.25;;;;;12.08;61.00;-18813.56;5032038;28;10532;-72
2022/04/24 00:54:13;;;;;;;;;22.75;21.00;;;;;12.04;61.38;-18812.34;5028710;28;10621;-73
2022/04/24 00:56:42;;;;;;;;;22.25;18.50;;;;;11.98;61.42;-18810.69;5032547;28;10644;-74
2022/04/24 00:59:10;;;;;;;;;19.00;19.00;;;;;12.02;61.83;-18811.91;5033307;28;10653;-73
2022/04/24 01:01:37;;;;;;;;;24.50;19.75;;;;;11.94;62.11;-18809.50;5026140;28;11538;-73
2022/04/24 01:04:05;;;;;;;;;27.50;27.00;;;;;11.91;62.36;-18808.44;5031233;28;10637;-73
2022/04/24 01:06:34;;;;;;;;;22.00;18.75;;;;;11.90;62.66;-18808.13;5029213;28;11047;-73
2022/04/24 01:09:15;;;;;;;;;25.00;24.75;;;;;11.88;62.65;-18807.69;5048194;28;10943;-73
2022/04/24 01:11:42;;;;;;;;;21.00;21.00;;;;;11.96;62.16;-18810.09;5047919;28;10987;-73
2022/04/24 01:14:10;;;;;;;;;20.25;18.00;;;;;11.96;62.57;-18810.09;5028279;28;10726;-73
2022/04/24 01:16:37;;;;;;;;;22.50;20.75;;;;;11.79;63.06;-18804.97;5032190;28;10605;-73
2022/04/24 01:19:05;;;;;;;;;22.25;21.75;;;;;11.83;62.84;-18806.16;5028090;28;10799;-73
2022/04/24 01:21:33;;;;;;;;;24.75;19.75;;;;;11.64;63.66;-18800.44;5025273;28;10705;-73
2022/04/24 01:23:59;;;;;;;;;27.75;21.50;;;;;11.56;63.96;-18798.03;5032774;28;10663;-74
2022/04/24 01:26:26;;;;;;;;;29.25;22.75;;;;;11.55;64.52;-18797.72;5032159;28;10753;-73
2022/04/24 01:28:52;;;;;;;;;23.00;21.50;;;;;11.57;64.92;-18798.47;5024393;28;10723;-73
2022/04/24 01:31:19;;;;;;;;;27.25;23.75;;;;;11.54;64.46;-18797.41;5021195;28;10663;-73
2022/04/24 01:33:46;;;;;;;;;28.25;25.00;;;;;11.66;64.44;-18801.19;5013615;28;11702;-73
2022/04/24 01:36:13;;;;;;;;;23.50;22.00;;;;;11.61;64.44;-18799.69;5012831;28;10984;-73
2022/04/24 01:38:40;;;;;;;;;18.25;17.50;;;;;11.60;63.92;-18799.22;5012033;28;10726;-73
2022/04/24 01:41:08;;;;;;;;;32.25;27.25;;;;;11.42;63.96;-18793.97;5015751;28;10658;-73
2022/04/24 01:43:36;;;;;;;;;24.75;22.25;;;;;11.21;64.76;-18787.63;5021064;28;10905;-73
2022/04/24 01:46:07;;;;;;;;;25.50;21.25;;;;;11.29;64.47;-18790.03;5029897;28;10956;-73
2022/04/24 01:48:34;;;;;;;;;27.50;25.00;;;;;11.21;64.92;-18787.78;5024857;28;10746;-76
2022/04/24 01:51:05;;;;;;;;;23.25;21.00;;;;;11.27;64.51;-18789.56;5031538;28;11009;-73
2022/04/24 01:53:33;;;;;;;;;24.50;21.50;;;;;11.09;65.19;-18784.31;5032258;28;10619;-73
2022/04/24 01:56:02;;;;;;;;;22.75;22.75;;;;;11.10;64.90;-18784.59;5044394;28;10732;-73
2022/04/24 01:58:28;;;;;;;;;23.00;21.75;;;;;11.21;64.82;-18787.78;5031573;28;11137;-73
2022/04/24 02:00:55;;;;;;;;;17.00;15.75;;;;;11.14;65.13;-18785.66;5031933;28;10962;-73
2022/04/24 02:03:23;;;;;;;;;21.25;18.25;;;;;11.29;64.93;-18790.03;5017701;28;10576;-73
2022/04/24 02:05:50;;;;;;;;;20.00;17.75;;;;;11.09;65.02;-18784.31;5027539;28;10717;-73
2022/04/24 02:08:17;;;;;;;;;25.50;17.50;;;;;11.21;64.58;-18787.78;5020441;28;10644;-73
2022/04/24 02:10:44;;;;;;;;;25.00;20.50;;;;;11.09;65.17;-18784.16;5030869;28;10685;-73
2022/04/24 02:13:11;;;;;;;;;21.75;19.25;;;;;11.04;64.94;-18782.63;5026359;28;10832;-74
2022/04/24 02:15:38;;;;;;;;;27.50;21.00;;;;;11.05;64.98;-18782.94;5029569;28;10815;-74
2022/04/24 02:18:04;;;;;;;;;19.00;18.00;;;;;10.90;64.92;-18778.56;5029477;28;10898;-74
2022/04/24 02:20:31;;;;;;;;;17.25;16.00;;;;;10.83;64.93;-18776.31;5030489;28;10643;-74
2022/04/24 02:22:59;;;;;;;;;21.75;18.75;;;;;10.76;65.20;-18774.50;5030852;28;11348;-74
2022/04/24 02:25:26;;;;;;;;;26.25;23.75;;;;;10.77;65.74;-18774.66;5030090;28;10882;-74
2022/04/24 02:27:55;;;;;;;;;22.50;22.00;;;;;10.83;64.84;-18776.31;5026303;28;11034;-74
2022/04/24 02:30:26;;;;;;;;;13.75;13.25;;;;;10.78;66.02;-18774.94;5031361;28;10829;-74
2022/04/24 02:32:59;;;;;;;;;18.25;15.50;;;;;10.88;65.43;-18777.81;5045997;28;10651;-74
2022/04/24 02:35:27;;;;;;;;;25.50;21.25;;;;;10.86;65.13;-18777.22;5033375;28;10812;-74
2022/04/24 02:37:56;;;;;;;;;21.00;19.75;;;;;10.84;64.31;-18776.59;5015358;28;10952;-74
2022/04/24 02:40:23;;;;;;;;;22.25;21.00;;;;;10.65;65.10;-18771.03;5028346;28;10841;-74
2022/04/24 02:42:50;;;;;;;;;22.00;19.75;;;;;10.75;64.91;-18774.03;5024493;28;11023;-74
2022/04/24 02:45:18;;;;;;;;;24.50;21.00;;;;;10.73;64.81;-18773.44;5030931;28;11044;-74
2022/04/24 02:47:45;;;;;;;;;19.00;18.00;;;;;10.68;64.98;-18772.09;5012421;28;11049;-75
2022/04/24 02:50:13;;;;;;;;;19.75;16.00;;;;;10.55;65.29;-18768.16;5010973;28;10721;-74
2022/04/24 02:52:50;;;;;;;;;23.00;19.50;;;;;10.70;65.16;-18772.53;5027422;28;10959;-75
2022/04/24 02:55:17;;;;;;;;;17.00;17.00;;;;;10.69;65.05;-18772.25;5030300;28;10983;-74
2022/04/24 02:57:45;;;;;;;;;14.75;10.00;;;;;10.74;64.85;-18773.75;5043008;28;10956;-74
2022/04/24 03:00:19;;;;;;;;;11.75;11.25;;;;;10.67;64.76;-18771.63;5043789;28;10688;-74
2022/04/24 03:02:46;;;;;;;;;17.25;11.25;;;;;10.62;64.96;-18770.13;5030294;28;10627;-74
2022/04/24 03:05:16;;;;;;;;;23.75;22.00;;;;;10.60;64.86;-18769.66;5029738;28;10903;-74
2022/04/24 03:07:42;;;;;;;;;16.50;13.75;;;;;10.73;64.78;-18773.59;5025835;28;11169;-74
2022/04/24 03:10:09;;;;;;;;;18.75;18.50;;;;;10.66;64.81;-18771.47;5029432;28;10789;-74
2022/04/24 03:12:37;;;;;;;;;19.75;16.25;;;;;10.72;64.60;-18773.13;5025123;28;11542;-75
2022/04/24 03:15:05;;;;;;;;;19.75;14.00;;;;;10.64;64.57;-18770.72;5017322;28;10970;-74
2022/04/24 03:17:32;;;;;;;;;15.50;14.75;;;;;10.59;64.77;-18769.22;5029521;28;10817;-74
2022/04/24 03:20:04;;;;;;;;;12.00;10.75;;;;;10.66;64.70;-18771.47;5029850;28;10947;-74
2022/04/24 03:22:33;;;;;;;;;15.00;13.75;;;;;10.71;64.14;-18772.84;5015128;28;10809;-74
2022/04/24 03:25:04;;;;;;;;;18.00;17.00;;;;;10.76;64.61;-18774.50;5009159;28;10781;-74
2022/04/24 03:27:31;;;;;;;;;15.75;14.25;;;;;10.66;64.86;-18771.47;5020629;28;10853;-74
2022/04/24 03:29:58;;;;;;;;;19.50;14.75;;;;;10.63;64.80;-18770.41;5029012;28;10879;-74
2022/04/24 03:32:30;;;;;;;;;15.25;14.75;;;;;10.58;64.60;-18769.06;5014965;28;10996;-75
2022/04/24 03:34:57;;;;;;;;;17.25;12.50;;;;;10.55;64.46;-18768.16;5010812;28;10647;-74
2022/04/24 03:37:23;;;;;;;;;21.75;18.25;;;;;10.60;64.35;-18769.66;5023851;28;10959;-74
2022/04/24 03:39:50;;;;;;;;;15.25;15.25;;;;;10.38;65.54;-18763.19;5027725;28;10861;-75
2022/04/24 03:42:16;;;;;;;;;17.25;17.25;;;;;10.36;65.16;-18762.56;5029736;28;10828;-75
2022/04/24 03:44:43;;;;;;;;;21.50;16.00;;;;;10.47;65.30;-18765.91;5029487;28;10929;-74
2022/04/24 03:47:09;;;;;;;;;17.00;15.50;;;;;10.44;65.09;-18764.84;5029815;28;10968;-74
2022/04/24 03:49:36;;;;;;;;;13.75;13.75;;;;;10.47;64.73;-18765.91;5030681;28;10826;-74
2022/04/24 03:52:03;;;;;;;;;17.50;12.25;;;;;10.45;64.84;-18765.28;5022202;28;10884;-74
2022/04/24 03:54:30;;;;;;;;;16.00;13.00;;;;;10.42;64.86;-18764.38;5030635;28;10802;-74
2022/04/24 03:56:57;;;;;;;;;13.75;13.25;;;;;10.46;64.73;-18765.59;5029567;28;10763;-74
2022/04/24 03:59:29;;;;;;;;;15.00;15.00;;;;;10.36;65.33;-18762.44;5030120;28;10965;-75
2022/04/24 04:01:55;;;;;;;;;12.00;12.00;;;;;10.33;65.54;-18761.53;5018998;28;10726;-74
2022/04/24 04:04:22;;;;;;;;;8.00;8.00;;;;;10.42;64.84;-18764.38;5014421;28;10709;-75
2022/04/24 04:06:49;;;;;;;;;10.00;10.00;;;;;10.38;64.96;-18763.19;5029777;28;10763;-74
2022/04/24 04:09:15;;;;;;;;;12.50;11.50;;;;;10.31;65.60;-18761.06;5034178;28;10627;-74
2022/04/24 04:11:42;;;;;;;;;18.25;16.75;;;;;10.32;65.18;-18761.22;5023926;28;10760;-74
2022/04/24 04:14:08;;;;;;;;;14.50;13.50;;;;;10.35;65.11;-18762.13;5014020;28;11087;-74
2022/04/24 04:16:35;;;;;;;;;14.00;13.00;;;;;10.36;64.86;-18762.56;5021266;28;10884;-74
2022/04/24 04:19:02;;;;;;;;;24.00;18.00;;;;;10.20;65.57;-18757.75;5027688;28;10954;-74
2022/04/24 04:21:29;;;;;;;;;13.75;13.50;;;;;10.08;66.04;-18754.28;5024408;28;11285;-74
2022/04/24 04:23:55;;;;;;;;;16.00;14.50;;;;;10.07;65.94;-18753.97;5033087;28;10808;-74
2022/04/24 04:26:22;;;;;;;;;13.75;11.25;;;;;10.12;65.96;-18755.47;5023134;28;10892;-74
2022/04/24 04:28:48;;;;;;;;;14.25;12.00;;;;;10.14;66.29;-18755.94;5031050;28;10849;-74
2022/04/24 04:31:15;;;;;;;;;17.50;14.25;;;;;10.05;65.88;-18753.38;5032988;28;10866;-74
2022/04/24 04:33:41;;;;;;;;;15.00;13.75;;;;;10.00;66.31;-18751.72;5032793;28;10971;-74
2022/04/24 04:36:09;;;;;;;;;13.75;12.50;;;;;10.05;65.72;-18753.38;5026729;28;11608;-74
2022/04/24 04:38:35;;;;;;;;;21.00;15.75;;;;;10.00;65.90;-18751.84;5017168;28;10870;-74
2022/04/24 04:41:03;;;;;;;;;16.75;15.25;;;;;9.91;65.75;-18749.13;5032790;28;11043;-74
2022/04/24 04:43:30;;;;;;;;;13.00;13.00;;;;;9.94;65.22;-18749.91;5033442;28;10898;-74
2022/04/24 04:45:57;;;;;;;;;13.75;12.75;;;;;10.04;64.89;-18752.91;5028551;28;11572;-74
2022/04/24 04:48:24;;;;;;;;;13.25;12.75;;;;;10.07;65.12;-18753.81;5031362;28;11088;-74
2022/04/24 04:50:50;;;;;;;;;13.25;11.00;;;;;9.99;65.61;-18751.56;5030414;28;11026;-73
2022/04/24 04:53:17;;;;;;;;;15.50;10.00;;;;;10.11;65.81;-18755.03;5031631;28;10981;-74
2022/04/24 04:55:44;;;;;;;;;17.00;13.50;;;;;10.05;65.60;-18753.22;5032536;28;10944;-73
2022/04/24 04:58:10;;;;;;;;;11.75;11.75;;;;;10.29;65.02;-18760.47;5032925;28;11015;-74
2022/04/24 05:00:37;;;;;;;;;14.75;14.25;;;;;10.42;64.70;-18764.38;5030182;28;10790;-74
2022/04/24 05:03:04;;;;;;;;;18.00;16.00;;;;;10.37;63.86;-18762.72;5032937;28;10982;-74
2022/04/24 05:05:30;;;;;;;;;15.75;15.25;;;;;10.48;63.61;-18766.06;5028551;28;10948;-74
2022/04/24 05:07:57;;;;;;;;;13.50;13.50;;;;;10.70;62.53;-18772.69;5030412;28;10877;-73
2022/04/24 05:10:24;;;;;;;;;16.75;15.50;;;;;10.91;61.45;-18778.88;5033276;28;11008;-74
2022/04/24 05:12:50;;;;;;;;;11.25;9.75;;;;;11.52;59.89;-18796.81;5032266;28;11024;-74
2022/04/24 05:15:19;;;;;;;;;13.25;12.00;;;;;11.39;60.17;-18793.03;5023731;28;10845;-75
2022/04/24 05:17:45;;;;;;;;;10.00;8.00;;;;;11.71;60.00;-18802.56;5031943;28;10933;-74
2022/04/24 05:20:12;;;;;;;;;15.25;14.00;;;;;11.75;58.68;-18803.75;5031641;28;10677;-74
2022/04/24 05:22:40;;;;;;;;;10.50;9.00;;;;;11.85;57.86;-18806.78;5031095;28;10709;-74
2022/04/24 05:25:12;;;;;;;;;12.00;11.25;;;;;11.55;58.81;-18797.88;5032432;28;10549;-74
2022/04/24 05:27:39;;;;;;;;;15.50;14.75;;;;;10.87;60.72;-18777.50;5029503;23;10565;-70
2022/04/24 05:30:08;;;;;;;;;14.25;14.25;;;;;10.72;61.39;-18773.28;5022203;28;10860;-70
2022/04/24 05:32:52;;;;;;;;;13.75;9.75;;;;;10.43;62.91;-18764.53;5028300;28;10881;-69
2022/04/24 05:35:18;;;;;;;;;15.75;14.00;;;;;10.31;62.36;-18761.06;5013706;28;10617;-69
2022/04/24 05:37:45;;;;;;;;;15.75;14.75;;;;;10.28;62.80;-18760.00;5031601;28;10808;-68
2022/04/24 05:40:12;;;;;;;;;12.75;12.75;;;;;10.41;63.19;-18763.94;5031963;28;10817;-69
2022/04/24 05:42:48;;;;;;;;;13.00;12.75;;;;;10.21;64.35;-18757.91;5031330;28;10803;-68
2022/04/24 05:45:18;;;;;;;;;13.00;13.00;;;;;10.30;64.69;-18760.78;5031537;28;10963;-69
2022/04/24 05:47:46;;;;;;;;;16.75;12.25;;;;;10.04;64.58;-18752.91;5011063;28;10827;-69
2022/04/24 05:50:13;;;;;;;;;14.00;13.75;;;;;9.99;64.32;-18751.41;5030433;28;10926;-70
2022/04/24 05:52:40;;;;;;;;;17.00;14.00;;;;;10.02;64.24;-18752.31;5030400;28;10919;-68
2022/04/24 05:55:07;;;;;;;;;13.75;13.75;;;;;10.11;64.11;-18755.19;5012707;28;10906;-69
2022/04/24 05:57:34;;;;;;;;;13.50;13.00;;;;;10.27;63.43;-18759.72;5024871;28;10941;-69
2022/04/24 06:00:01;;;;;;;;;19.75;15.25;;;;;10.44;62.73;-18764.84;5030720;28;10812;-69
2022/04/24 06:02:37;;;;;;;;;14.25;13.00;;;;;10.56;62.07;-18768.47;5028308;28;10987;-69
2022/04/24 06:05:04;;;;;;;;;9.50;9.25;;;;;10.81;61.30;-18775.69;5026786;28;10881;-69
2022/04/24 06:07:31;;;;;;;;;21.50;16.75;;;;;10.90;60.72;-18778.56;5027061;28;10900;-69
2022/04/24 06:09:57;;;;;;;;;13.75;12.00;;;;;11.06;60.86;-18783.41;5029218;28;10878;-69
2022/04/24 06:12:24;;;;;;;;;18.00;15.75;;;;;11.10;60.19;-18784.59;5012294;28;10878;-69
2022/04/24 06:14:50;;;;;;;;;12.50;11.00;;;;;11.57;59.72;-18798.31;5029651;28;10921;-69
2022/04/24 06:17:16;;;;;;;;;16.25;15.00;;;;;11.61;57.83;-18799.53;5024981;28;10733;-70
2022/04/24 06:19:43;;;;;;;;;14.50;13.00;;;;;11.73;57.40;-18803.16;5024622;28;10750;-70
2022/04/24 06:22:09;;;;;;;;;11.25;10.50;;;;;11.65;58.01;-18800.88;5029666;28;10801;-70
2022/04/24 06:24:36;;;;;;;;;16.00;14.00;;;;;11.95;56.50;-18809.63;5023905;28;10732;-70
2022/04/24 06:27:03;;;;;;;;;15.25;15.25;;;;;11.99;56.58;-18810.84;5025909;28;10652;-69
2022/04/24 06:29:30;;;;;;;;;13.25;12.75;;;;;12.05;56.80;-18812.50;5028810;28;10483;-70
2022/04/24 06:31:56;;;;;;;;;21.50;18.50;;;;;11.87;57.60;-18807.38;5018121;28;10600;-71
2022/04/24 06:34:23;;;;;;;;;9.50;9.50;;;;;12.33;56.34;-18820.94;5026164;28;10670;-69
2022/04/24 06:36:49;;;;;;;;;11.00;10.50;;;;;12.09;56.21;-18813.72;5029451;28;10533;-69
2022/04/24 06:39:15;;;;;;;;;14.75;12.25;;;;;12.07;56.47;-18813.25;5030767;28;10863;-69
2022/04/24 06:41:42;;;;;;;;;12.25;11.50;;;;;12.01;55.90;-18811.59;5021967;28;10580;-69
2022/04/24 06:44:20;;;;;;;;;15.75;15.75;;;;;11.96;56.39;-18810.09;5011084;28;10616;-69
2022/04/24 06:46:46;;;;;;;;;14.00;10.75;;;;;11.84;57.48;-18806.47;5010881;28;10522;-69
2022/04/24 06:49:13;;;;;;;;;11.00;10.00;;;;;11.88;56.91;-18807.69;5025134;28;10595;-70
2022/04/24 06:51:40;;;;;;;;;14.50;13.00;;;;;11.74;56.65;-18803.44;5024780;28;10677;-70
2022/04/24 06:54:06;;;;;;;;;15.25;12.25;;;;;11.82;57.46;-18805.88;5029011;28;10584;-69
2022/04/24 06:56:33;;;;;;;;;15.75;14.00;;;;;11.58;58.14;-18798.78;5029287;28;11714;-69
2022/04/24 06:58:59;;;;;;;;;19.00;18.00;;;;;11.35;58.68;-18791.84;5030883;28;10715;-70
2022/04/24 07:01:26;;;;;;;;;12.50;11.50;;;;;11.73;58.45;-18803.16;5025734;28;10675;-71
2022/04/24 07:03:53;;;;;;;;;12.75;9.50;;;;;11.99;57.73;-18810.84;5028092;28;10405;-69
2022/04/24 07:06:22;;;;;;;;;14.50;14.00;;;;;11.91;57.68;-18808.59;5012664;28;10598;-69
2022/04/24 07:08:49;;;;;;;;;18.50;16.00;;;;;11.35;57.88;-18792.00;5030375;28;10533;-72
2022/04/24 07:11:15;;;;;;;;;15.25;10.00;;;;;11.70;58.05;-18802.41;5007584;28;10553;-69
2022/04/24 07:13:42;;;;;;;;;13.25;11.00;;;;;11.75;57.93;-18803.59;4994655;28;10598;-69
2022/04/24 07:16:08;;;;;;;;;12.75;12.75;;;;;12.39;56.79;-18822.75;5028470;28;10579;-71
2022/04/24 07:18:35;;;;;;;;;12.50;11.75;;;;;12.35;55.23;-18821.53;5030147;28;10562;-70
2022/04/24 07:21:02;;;;;;;;;12.75;10.50;;;;;12.30;56.73;-18820.19;5022181;28;10722;-69
2022/04/24 07:23:29;;;;;;;;;9.50;9.00;;;;;12.13;56.28;-18814.91;5030087;28;10423;-69
2022/04/24 07:25:56;;;;;;;;;17.25;16.75;;;;;11.78;58.25;-18804.66;5025865;28;10167;-69
2022/04/24 07:28:22;;;;;;;;;17.00;13.00;;;;;12.12;58.28;-18814.63;5019428;28;10824;-69
2022/04/24 07:30:49;;;;;;;;;16.75;15.50;;;;;12.37;57.70;-18822.16;5028774;28;10484;-69
2022/04/24 07:33:16;;;;;;;;;14.50;13.75;;;;;12.29;56.99;-18819.75;5024715;28;10728;-69
2022/04/24 07:35:42;;;;;;;;;14.25;14.00;;;;;12.21;57.84;-18817.47;4998984;28;11437;-68
2022/04/24 07:38:10;;;;;;;;;16.50;10.00;;;;;12.31;58.84;-18820.50;5013659;28;10671;-70
2022/04/24 07:40:39;;;;;;;;;16.50;15.00;;;;;12.73;58.13;-18832.84;5014660;28;10502;-70
2022/04/24 07:43:07;;;;;;;;;14.00;13.75;;;;;13.06;56.16;-18842.50;5032564;28;10579;-69
2022/04/24 07:45:37;;;;;;;;;13.00;11.50;;;;;12.98;57.26;-18840.22;5023480;28;10681;-70
2022/04/24 07:48:08;;;;;;;;;16.00;15.00;;;;;13.08;56.41;-18843.09;5023217;28;10422;-70
2022/04/24 07:50:40;;;;;;;;;15.50;14.50;;;;;12.88;57.08;-18837.38;5028063;28;11559;-69
2022/04/24 07:53:07;;;;;;;;;16.00;12.50;;;;;12.79;57.49;-18834.50;5014772;28;10537;-69
2022/04/24 07:55:34;;;;;;;;;12.50;12.50;;;;;12.74;57.22;-18833.00;5031847;28;10557;-69
2022/04/24 07:58:01;;;;;;;;;14.50;12.50;;;;;12.79;57.49;-18834.66;5031365;28;10266;-69
2022/04/24 08:00:30;;;;;;;;;16.00;14.00;;;;;13.04;56.86;-18842.03;5034003;28;11026;-69
2022/04/24 08:02:57;;;;;;;;;9.00;9.00;;;;;12.68;57.42;-18831.34;5029536;28;10246;-69
2022/04/24 08:05:39;;;;;;;;;12.25;11.50;;;;;13.02;56.81;-18841.28;5021333;28;10260;-71
2022/04/24 08:08:10;;;;;;;;;16.00;12.25;;;;;12.71;57.17;-18832.25;5015605;28;10417;-69
2022/04/24 08:10:39;;;;;;;;;19.25;14.00;;;;;13.13;56.67;-18844.75;5022222;28;10242;-70
2022/04/24 08:13:07;;;;;;;;;18.00;14.75;;;;;12.84;56.34;-18836.00;5031838;28;11228;-70
2022/04/24 08:15:40;;;;;;;;;16.50;15.75;;;;;12.94;55.73;-18839.19;5031669;28;10256;-69
2022/04/24 08:18:07;;;;;;;;;10.00;10.00;;;;;13.22;55.79;-18847.31;5033173;28;10360;-69
2022/04/24 08:20:37;;;;;;;;;15.25;13.75;;;;;13.14;55.23;-18844.91;5027314;28;10266;-70
2022/04/24 08:23:05;;;;;;;;;10.75;10.75;;;;;13.33;55.60;-18850.47;5031446;28;10358;-69
2022/04/24 08:25:34;;;;;;;;;16.00;14.50;;;;;13.06;56.69;-18842.63;5032696;28;10153;-69
2022/04/24 08:28:06;;;;;;;;;16.00;15.75;;;;;13.14;56.22;-18844.91;5016956;28;10571;-69
2022/04/24 08:30:34;;;;;;;;;13.00;13.00;;;;;13.43;55.82;-18853.66;5013658;28;11155;-69
2022/04/24 08:33:01;;;;;;;;;14.25;13.75;;;;;13.40;54.82;-18852.59;5013341;28;11008;-69
2022/04/24 08:35:28;;;;;;;;;13.00;12.50;;;;;13.10;56.04;-18843.84;5029325;28;10578;-69
2022/04/24 08:37:54;;;;;;;;;21.75;15.75;;;;;13.50;54.80;-18855.59;5020062;28;10257;-69
2022/04/24 08:40:24;;;;;;;;;15.25;13.00;;;;;13.46;54.34;-18854.56;5020608;28;10288;-70
2022/04/24 08:42:52;;;;;;;;;16.25;15.50;;;;;13.21;55.50;-18847.16;5023663;28;10242;-69
2022/04/24 08:45:24;;;;;;;;;17.50;17.00;;;;;13.70;55.03;-18861.63;5028406;28;10251;-69
2022/04/24 08:47:51;;;;;;;;;11.50;11.50;;;;;13.77;55.08;-18863.59;5016177;28;10295;-69
2022/04/24 08:50:18;;;;;;;;;12.75;12.75;;;;;13.86;55.33;-18866.28;5032309;28;10277;-70
2022/04/24 08:52:46;;;;;;;;;11.50;11.25;;;;;14.23;54.59;-18877.28;5012696;28;10249;-69
2022/04/24 08:55:13;;;;;;;;;18.25;15.50;;;;;14.20;53.34;-18876.25;5012675;28;10160;-71
2022/04/24 08:57:39;;;;;;;;;18.75;16.75;;;;;13.43;54.93;-18853.66;5025185;28;10172;-70
2022/04/24 09:00:07;;;;;;;;;20.25;15.00;;;;;13.33;56.90;-18850.63;5029799;28;10214;-69
2022/04/24 09:02:50;;;;;;;;;17.25;16.00;;;;;13.39;54.47;-18852.44;5030552;28;10064;-70
2022/04/24 09:05:17;;;;;;;;;20.25;17.25;;;;;13.22;56.06;-18847.31;5032389;28;10094;-70
2022/04/24 09:07:45;;;;;;;;;16.50;16.50;;;;;13.36;56.08;-18851.53;5031014;28;10296;-70
2022/04/24 09:10:32;;;;;;;;;17.00;15.00;;;;;13.77;55.01;-18863.59;5016513;28;10245;-69
2022/04/24 09:12:59;;;;;;;;;19.50;17.00;;;;;13.79;53.71;-18864.19;5006553;28;10112;-69
2022/04/24 09:15:27;;;;;;;;;15.25;14.00;;;;;14.28;53.08;-18878.66;5032624;28;10176;-69
2022/04/24 09:18:00;;;;;;;;;19.25;17.25;;;;;14.08;52.75;-18872.78;5031406;28;10023;-69
2022/04/24 09:20:41;;;;;;;;;17.00;13.75;;;;;14.01;53.50;-18870.81;5030983;28;10031;-69
2022/04/24 09:23:08;;;;;;;;;15.50;15.50;;;;;14.52;51.48;-18885.72;5013910;28;10134;-69
2022/04/24 09:25:38;;;;;;;;;16.50;13.50;;;;;14.59;51.69;-18887.84;5003431;28;10051;-69
2022/04/24 09:28:05;;;;;;;;;14.50;13.50;;;;;14.04;52.81;-18871.56;5023062;28;10772;-70
2022/04/24 09:30:35;;;;;;;;;13.75;13.50;;;;;14.04;54.36;-18871.72;5022926;28;9852;-69
2022/04/24 09:33:06;;;;;;;;;18.50;17.25;;;;;14.01;55.33;-18870.81;5031884;28;10029;-70
2022/04/24 09:35:36;;;;;;;;;18.75;18.75;;;;;13.83;54.58;-18865.53;5032173;28;10149;-69
2022/04/24 09:38:10;;;;;;;;;20.75;16.25;;;;;14.97;52.50;-18899.28;5029179;28;10266;-69
2022/04/24 09:40:42;;;;;;;;;11.00;11.00;;;;;15.48;50.46;-18914.16;5008330;28;10848;-70
2022/04/24 09:43:13;;;;;;;;;18.00;14.25;;;;;14.94;50.96;-18898.22;5024774;28;9914;-70
2022/04/24 09:45:41;;;;;;;;;15.00;15.00;;;;;15.02;49.97;-18900.78;5027964;28;9925;-69
2022/04/24 09:48:19;;;;;;;;;16.25;15.25;;;;;15.30;49.35;-18908.91;5013926;28;9940;-69
2022/04/24 09:50:48;;;;;;;;;17.75;13.50;;;;;14.85;49.66;-18895.66;5026832;28;9931;-68
2022/04/24 09:53:18;;;;;;;;;22.25;18.75;;;;;14.89;50.13;-18896.72;5009334;28;9951;-70
2022/04/24 09:55:45;;;;;;;;;17.00;15.75;;;;;14.68;51.73;-18890.69;5010976;28;10057;-69
2022/04/24 09:58:13;;;;;;;;;17.75;17.50;;;;;14.50;53.36;-18885.28;5031139;28;10627;-69
2022/04/24 10:00:41;;;;;;;;;15.00;14.50;;;;;14.96;53.34;-18898.81;5019413;28;10036;-69
2022/04/24 10:03:12;;;;;;;;;14.75;14.50;;;;;14.98;51.73;-18899.41;5025604;28;9961;-70
2022/04/24 10:05:39;;;;;;;;;16.25;15.50;;;;;15.52;50.92;-18915.53;5016327;28;10119;-69
2022/04/24 10:08:06;;;;;;;;;19.00;16.00;;;;;15.33;51.68;-18909.81;5029311;28;10096;-69
2022/04/24 10:10:33;;;;;;;;;17.50;14.50;;;;;15.22;51.72;-18906.66;5031471;28;9961;-68
2022/04/24 10:13:01;;;;;;;;;14.50;14.25;;;;;15.80;50.45;-18923.66;5001467;28;9958;-68
2022/04/24 10:15:30;;;;;;;;;14.50;13.50;;;;;15.80;49.72;-18923.81;5019059;28;9889;-68
2022/04/24 10:18:21;;;;;;;;;19.25;14.50;;;;;15.68;50.76;-18920.19;5024671;28;9765;-70
2022/04/24 10:21:25;;;;;;;;;18.25;12.00;;;;;15.35;51.68;-18910.56;5025465;28;9690;-70
2022/04/24 10:23:51;;;;;;;;;14.75;14.75;;;;;15.66;49.99;-18919.75;5011536;28;9773;-69
2022/04/24 10:26:22;;;;;;;;;16.25;14.50;;;;;15.86;48.97;-18925.59;5015164;28;9855;-69
2022/04/24 10:29:01;;;;;;;;;18.50;16.50;;;;;15.97;49.09;-18928.91;5010511;28;9856;-69
2022/04/24 10:31:27;;;;;;;;;18.00;15.00;;;;;16.16;48.24;-18934.31;5022695;28;9993;-69
2022/04/24 10:33:55;;;;;;;;;16.75;14.50;;;;;15.76;48.64;-18922.44;5025806;28;9803;-70
2022/04/24 10:36:23;;;;;;;;;13.75;13.00;;;;;16.40;48.42;-18941.41;5012430;28;9543;-69
2022/04/24 10:38:54;;;;;;;;;18.00;15.00;;;;;15.88;48.83;-18926.06;5015718;28;9677;-69
2022/04/24 10:41:40;;;;;;;;;8.33;8.33;;;;;16.35;48.51;-18939.88;5013346;28;9724;-70
2022/04/24 10:44:09;;;;;;;;;16.75;14.00;;;;;15.69;48.05;-18920.66;5012562;28;9390;-70
2022/04/24 10:46:42;;;;;;;;;14.00;13.25;;;;;15.78;47.56;-18923.03;5029720;28;9722;-69
2022/04/24 10:49:14;;;;;;;;;12.50;12.25;;;;;16.26;46.87;-18937.34;5025656;28;9537;-68
2022/04/24 10:51:43;;;;;;;;;13.25;13.00;;;;;15.84;48.03;-18925.00;5029567;28;9693;-69
2022/04/24 10:54:13;;;;;;;;;10.75;10.50;;;;;16.30;47.31;-18938.53;5017628;28;9696;-69
2022/04/24 10:56:51;;;;;;;;;14.00;12.75;;;;;16.55;45.83;-18946.06;5027416;28;9761;-69
2022/04/24 10:59:19;;;;;;;;;8.50;8.50;;;;;15.99;46.28;-18929.50;5030617;28;9607;-67
2022/04/24 11:01:55;;;;;;;;;11.00;10.75;;;;;15.92;46.47;-18927.41;5021045;28;10211;-68
2022/04/24 11:04:23;;;;;;;;;14.00;12.75;;;;;16.18;46.09;-18935.09;5012242;28;9618;-68
2022/04/24 11:06:56;;;;;;;;;8.00;8.00;;;;;15.72;46.74;-18921.25;5010459;28;9455;-67
2022/04/24 11:09:28;;;;;;;;;9.00;8.00;;;;;15.94;45.45;-18928.00;5025407;28;9451;-68
2022/04/24 11:12:01;;;;;;;;;7.00;6.67;;;;;16.33;45.95;-18939.28;5003533;28;9468;-70
2022/04/24 11:14:28;;;;;;;;;7.33;7.33;;;;;16.65;44.42;-18948.91;5030436;28;9551;-69
2022/04/24 11:17:03;;;;;;;;;9.00;7.67;;;;;16.43;44.32;-18942.28;5027350;28;9392;-71
2022/04/24 11:19:35;;;;;;;;;8.67;8.67;;;;;16.22;43.57;-18936.13;5009503;28;9469;-71